Time;durP1;ratioP1;P1;durP2;ratioP2;P2;SDS_P1;SDS_P2;PMS_P1;PMS_P2;Temp;Humidity;BMP_temperature;BMP_pressure;BME280_temperature;BME280_humidity;BME280_pressure;Samples;Min_cycle;Max_cycle;Signal;HPM_P1;HPM_P2
2023/04/01 00:00:19;;;;;;;4.30;1.97;;;10.60;99.90;;;;;;5074665;28;20240;-83
2023/04/01 00:02:45;;;;;;;2.27;1.40;;;10.60;99.90;;;;;;5091598;28;20231;-84
2023/04/01 00:05:11;;;;;;;3.10;1.80;;;10.60;99.90;;;;;;5092753;28;20678;-83
2023/04/01 00:07:38;;;;;;;2.20;1.97;;;10.60;99.90;;;;;;5058630;28;20211;-83
2023/04/01 00:10:09;;;;;;;3.53;2.37;;;10.70;99.90;;;;;;5091839;28;20227;-83
2023/04/01 00:12:35;;;;;;;5.60;2.43;;;10.60;99.90;;;;;;5086368;28;20209;-83
2023/04/01 00:15:01;;;;;;;5.40;1.97;;;10.70;99.90;;;;;;5091573;28;20212;-84
2023/04/01 00:17:27;;;;;;;2.27;1.57;;;10.70;99.90;;;;;;5091179;28;20315;-83
2023/04/01 00:19:55;;;;;;;2.30;1.13;;;10.70;99.90;;;;;;5092634;28;20264;-83
2023/04/01 00:22:21;;;;;;;2.20;1.87;;;10.70;99.90;;;;;;5091707;28;20181;-83
2023/04/01 00:24:47;;;;;;;5.50;2.17;;;10.70;99.90;;;;;;5091310;28;20224;-83
2023/04/01 00:27:14;;;;;;;3.33;2.80;;;10.70;99.90;;;;;;5091359;28;20714;-84
2023/04/01 00:29:42;;;;;;;2.20;2.00;;;10.70;99.90;;;;;;5074447;28;20208;-87
2023/04/01 00:32:08;;;;;;;3.10;2.27;;;10.70;99.90;;;;;;5091316;28;20258;-84
2023/04/01 00:34:34;;;;;;;3.67;2.40;;;10.70;99.90;;;;;;5075204;28;20213;-83
2023/04/01 00:37:00;;;;;;;3.03;2.20;;;10.70;99.90;;;;;;5074314;28;20577;-84
2023/04/01 00:39:29;;;;;;;2.00;1.63;;;10.70;99.90;;;;;;5074319;28;20642;-86
2023/04/01 00:41:56;;;;;;;2.67;2.47;;;10.70;99.90;;;;;;5091007;28;20682;-84
2023/04/01 00:44:32;;;;;;;8.43;1.90;;;10.70;99.90;;;;;;5091024;28;20224;-85
2023/04/01 00:46:58;;;;;;;2.13;1.90;;;10.70;99.90;;;;;;5092085;28;20277;-84
2023/04/01 00:49:46;;;;;;;1.87;1.57;;;10.70;99.90;;;;;;5058130;28;20189;-84
2023/04/01 00:52:17;;;;;;;8.17;2.10;;;10.70;99.90;;;;;;5090284;28;20212;-83
2023/04/01 00:54:47;;;;;;;3.77;1.90;;;10.70;99.90;;;;;;5091107;28;20216;-84
2023/04/01 00:57:34;;;;;;;2.67;2.27;;;10.70;99.90;;;;;;5090722;28;20250;-84
2023/04/01 01:00:00;;;;;;;3.67;2.97;;;10.60;99.90;;;;;;5092037;28;20697;-83
2023/04/01 01:02:25;;;;;;;3.00;1.80;;;10.60;99.90;;;;;;5090521;28;20311;-84
2023/04/01 01:04:51;;;;;;;2.73;1.83;;;10.60;99.90;;;;;;5090673;28;20534;-83
2023/04/01 01:07:36;;;;;;;3.43;2.47;;;10.60;99.90;;;;;;5074482;28;20196;-83
2023/04/01 01:10:13;;;;;;;3.13;2.70;;;10.60;99.90;;;;;;5090645;28;20224;-84
2023/04/01 01:13:11;;;;;;;3.87;2.67;;;10.60;99.90;;;;;;5091930;28;20698;-83
2023/04/01 01:15:52;;;;;;;2.77;2.53;;;10.60;99.90;;;;;;5090874;28;20208;-84
2023/04/01 01:18:18;;;;;;;2.70;2.37;;;10.60;99.90;;;;;;5092051;28;20601;-83
2023/04/01 01:21:19;;;;;;;2.67;1.97;;;10.60;99.90;;;;;;5092030;28;20221;-83
2023/04/01 01:24:13;;;;;;;3.87;2.37;;;10.60;99.90;;;;;;5090378;28;20224;-83
2023/04/01 01:26:48;;;;;;;3.10;2.23;;;10.60;99.90;;;;;;5090372;28;20231;-84
2023/04/01 01:29:13;;;;;;;3.43;2.03;;;10.60;99.90;;;;;;5091949;28;20212;-83
2023/04/01 01:32:16;;;;;;;2.30;2.10;;;10.60;99.90;;;;;;5091775;28;20234;-85
2023/04/01 01:34:54;;;;;;;3.07;1.97;;;10.60;99.90;;;;;;5091553;28;20176;-83
2023/04/01 01:37:23;;;;;;;2.83;1.83;;;10.60;99.90;;;;;;5092321;28;20177;-84
2023/04/01 01:39:54;;;;;;;4.30;2.43;;;10.60;99.90;;;;;;5091759;28;20224;-84
2023/04/01 01:42:22;;;;;;;3.57;2.60;;;10.60;99.90;;;;;;5091710;28;20292;-84
2023/04/01 01:44:50;;;;;;;3.63;3.13;;;10.60;99.90;;;;;;5090698;28;20600;-83
2023/04/01 01:47:19;;;;;;;3.13;2.70;;;10.60;99.90;;;;;;5091380;28;20694;-83
2023/04/01 01:49:45;;;;;;;5.63;2.50;;;10.50;99.90;;;;;;5090279;28;20184;-83
2023/04/01 01:52:12;;;;;;;4.37;2.47;;;10.60;99.90;;;;;;5074028;28;20661;-83
2023/04/01 01:54:51;;;;;;;3.23;2.63;;;10.50;99.90;;;;;;5091539;28;20353;-83
2023/04/01 01:57:19;;;;;;;3.43;2.13;;;10.60;99.90;;;;;;5091411;28;20220;-83
2023/04/01 01:59:48;;;;;;;2.77;2.57;;;10.50;99.90;;;;;;5073543;28;20306;-83
2023/04/01 02:02:15;;;;;;;3.90;2.83;;;10.50;99.90;;;;;;5090150;28;20227;-83
2023/04/01 02:04:45;;;;;;;4.13;3.20;;;10.60;99.90;;;;;;5090531;28;20187;-85
2023/04/01 02:07:28;;;;;;;3.20;2.83;;;10.50;99.90;;;;;;5091667;28;20181;-84
2023/04/01 02:09:54;;;;;;;4.33;3.23;;;10.50;99.90;;;;;;5091321;28;20248;-83
2023/04/01 02:12:22;;;;;;;2.90;2.70;;;10.50;99.90;;;;;;5073225;28;20294;-84
2023/04/01 02:14:51;;;;;;;4.37;3.07;;;10.50;99.90;;;;;;5090158;28;20231;-84
2023/04/01 02:17:20;;;;;;;3.07;2.40;;;10.60;99.90;;;;;;5091161;28;20208;-83
2023/04/01 02:19:59;;;;;;;6.77;2.20;;;10.50;99.90;;;;;;5093930;28;20263;-83
2023/04/01 02:22:29;;;;;;;2.87;2.63;;;10.60;99.90;;;;;;5094119;28;20165;-83
2023/04/01 02:24:59;;;;;;;3.23;2.90;;;10.50;99.90;;;;;;5094851;28;20229;-83
2023/04/01 02:27:25;;;;;;;2.13;1.67;;;10.60;99.90;;;;;;5093607;28;20217;-84
2023/04/01 02:29:52;;;;;;;3.07;2.73;;;10.60;99.90;;;;;;5094837;28;20213;-84
2023/04/01 02:32:20;;;;;;;4.10;3.37;;;10.50;99.90;;;;;;5093364;28;20356;-82
2023/04/01 02:34:47;;;;;;;4.00;3.23;;;10.60;99.90;;;;;;5093463;28;20181;-86
2023/04/01 02:37:13;;;;;;;2.40;1.53;;;10.60;99.90;;;;;;5093814;28;20177;-86
2023/04/01 02:39:39;;;;;;;2.77;1.97;;;10.60;99.90;;;;;;5094719;28;20267;-83
2023/04/01 02:42:05;;;;;;;4.60;3.83;;;10.50;99.90;;;;;;5093461;28;20300;-84
2023/04/01 02:44:32;;;;;;;4.57;3.03;;;10.60;99.90;;;;;;5076478;28;20625;-84
2023/04/01 02:46:57;;;;;;;3.87;3.20;;;10.60;99.90;;;;;;5093317;28;20299;-84
2023/04/01 02:49:23;;;;;;;3.20;2.80;;;10.60;99.90;;;;;;5093556;28;20264;-84
2023/04/01 02:51:49;;;;;;;3.23;1.93;;;10.60;99.90;;;;;;5076580;28;20220;-84
2023/04/01 02:54:15;;;;;;;3.53;2.60;;;10.60;99.90;;;;;;5092947;28;20678;-83
2023/04/01 02:56:40;;;;;;;4.80;3.03;;;10.60;99.90;;;;;;5093363;28;20220;-83
2023/04/01 02:59:06;;;;;;;3.00;1.73;;;10.60;99.90;;;;;;5093585;28;20678;-83
2023/04/01 03:01:32;;;;;;;2.63;2.40;;;10.60;99.90;;;;;;5059882;28;20188;-85
2023/04/01 03:03:58;;;;;;;3.37;2.27;;;10.60;99.90;;;;;;5059627;28;20217;-83
2023/04/01 03:06:23;;;;;;;3.80;1.93;;;10.60;99.90;;;;;;5092911;28;20216;-83
2023/04/01 03:08:49;;;;;;;3.93;2.67;;;10.60;99.90;;;;;;5075990;28;20239;-83
2023/04/01 03:11:15;;;;;;;5.23;3.23;;;10.60;99.90;;;;;;5059338;28;20213;-83
2023/04/01 03:13:41;;;;;;;3.37;3.07;;;10.60;99.90;;;;;;5076111;28;20325;-84
2023/04/01 03:16:07;;;;;;;4.93;2.83;;;10.60;99.90;;;;;;5093303;28;20196;-83
2023/04/01 03:18:33;;;;;;;3.47;2.33;;;10.60;99.90;;;;;;5075737;28;20235;-84
2023/04/01 03:21:13;;;;;;;3.10;2.80;;;10.60;99.90;;;;;;5092695;28;20234;-83
2023/04/01 03:23:39;;;;;;;4.63;2.77;;;10.60;99.90;;;;;;5075616;28;20219;-83
2023/04/01 03:26:04;;;;;;;4.70;2.47;;;10.50;99.90;;;;;;5058821;28;20220;-83
2023/04/01 03:28:30;;;;;;;3.53;2.73;;;10.50;99.90;;;;;;5093976;28;20634;-84
2023/04/01 03:30:56;;;;;;;1.97;1.80;;;10.50;99.90;;;;;;5075731;28;20224;-84
2023/04/01 03:33:21;;;;;;;1.10;1.10;;;10.40;99.90;;;;;;5058767;28;20262;-84
2023/04/01 03:35:47;;;;;;;2.07;1.17;;;10.40;99.90;;;;;;5059101;28;20639;-84
2023/04/01 03:38:13;;;;;;;3.40;2.40;;;10.40;99.90;;;;;;5058418;28;20228;-83
2023/04/01 03:40:42;;;;;;;3.83;2.10;;;10.40;99.90;;;;;;5058847;28;20551;-85
2023/04/01 03:43:09;;;;;;;4.40;3.13;;;10.40;99.90;;;;;;5093730;28;20297;-84
2023/04/01 03:45:36;;;;;;;3.03;2.80;;;10.50;99.90;;;;;;5075478;28;20296;-83
2023/04/01 03:48:02;;;;;;;5.87;2.77;;;10.50;99.90;;;;;;5092255;28;20273;-86
2023/04/01 03:50:27;;;;;;;6.23;3.03;;;10.60;99.90;;;;;;5093130;28;20608;-83
2023/04/01 03:52:53;;;;;;;2.10;1.90;;;10.50;99.90;;;;;;5075317;28;20177;-85
2023/04/01 03:55:19;;;;;;;13.57;5.20;;;10.60;99.90;;;;;;5092235;28;20634;-85
2023/04/01 03:57:45;;;;;;;2.77;1.70;;;10.60;99.90;;;;;;5091659;28;20228;-83
2023/04/01 04:00:11;;;;;;;3.70;2.83;;;10.60;99.90;;;;;;5091621;28;20315;-83
2023/04/01 04:02:36;;;;;;;6.27;4.40;;;10.60;99.90;;;;;;5092090;28;20278;-84
2023/04/01 04:05:02;;;;;;;4.07;2.90;;;10.60;99.90;;;;;;5074802;28;20666;-84
2023/04/01 04:07:28;;;;;;;4.67;2.57;;;10.60;99.90;;;;;;5075208;28;20181;-83
2023/04/01 04:09:54;;;;;;;5.47;2.50;;;10.60;99.90;;;;;;5058447;28;20478;-86
2023/04/01 04:12:19;;;;;;;5.83;3.07;;;10.60;99.90;;;;;;5092790;28;20303;-84
2023/04/01 04:14:45;;;;;;;3.20;2.43;;;10.60;99.90;;;;;;5074762;28;20697;-84
2023/04/01 04:17:16;;;;;;;3.33;2.73;;;10.60;99.90;;;;;;5074535;28;20212;-83
2023/04/01 04:19:42;;;;;;;3.30;3.10;;;10.60;99.90;;;;;;5091460;28;20195;-82
2023/04/01 04:22:08;;;;;;;4.33;2.73;;;10.60;99.90;;;;;;5075144;28;20264;-83
2023/04/01 04:24:37;;;;;;;3.63;3.17;;;10.50;99.90;;;;;;5092433;28;20362;-83
2023/04/01 04:27:03;;;;;;;2.97;1.90;;;10.50;99.90;;;;;;5091190;28;20216;-84
2023/04/01 04:29:29;;;;;;;4.00;2.53;;;10.60;99.90;;;;;;5057783;28;20224;-83
2023/04/01 04:31:55;;;;;;;4.10;3.37;;;10.60;99.90;;;;;;5074570;28;20173;-83
2023/04/01 04:34:22;;;;;;;7.50;3.93;;;10.50;99.90;;;;;;5074719;28;20665;-83
2023/04/01 04:36:48;;;;;;;2.90;2.13;;;10.60;99.90;;;;;;5057918;28;20224;-83
2023/04/01 04:39:15;;;;;;;4.03;3.17;;;10.60;99.90;;;;;;5090671;28;20239;-83
2023/04/01 04:41:41;;;;;;;4.27;3.70;;;10.60;99.90;;;;;;5074297;28;20208;-84
2023/04/01 04:44:07;;;;;;;4.43;3.13;;;10.60;99.90;;;;;;5091970;28;20678;-87
2023/04/01 04:46:33;;;;;;;1.80;1.67;;;10.60;99.90;;;;;;5074912;28;20189;-84
2023/04/01 04:48:58;;;;;;;9.70;4.90;;;10.60;99.90;;;;;;5074290;28;20340;-83
2023/04/01 04:51:24;;;;;;;3.43;2.77;;;10.60;99.90;;;;;;5090899;28;20243;-85
2023/04/01 04:53:50;;;;;;;3.77;3.07;;;10.60;99.90;;;;;;5090996;28;20216;-85
2023/04/01 04:56:20;;;;;;;11.90;4.67;;;10.60;99.90;;;;;;5073828;28;20638;-83
2023/04/01 04:58:46;;;;;;;3.53;2.47;;;10.60;99.90;;;;;;5057601;28;20304;-83
2023/04/01 05:01:15;;;;;;;7.40;3.33;;;10.60;99.90;;;;;;5091007;28;20255;-83
2023/04/01 05:03:41;;;;;;;5.83;3.43;;;10.50;99.90;;;;;;5092081;28;20220;-83
2023/04/01 05:06:08;;;;;;;4.03;3.17;;;10.50;99.90;;;;;;5073900;28;20226;-83
2023/04/01 05:08:35;;;;;;;5.27;3.70;;;10.50;99.90;;;;;;5090901;28;20628;-83
2023/04/01 05:11:01;;;;;;;3.57;3.13;;;10.50;99.90;;;;;;5090634;28;20295;-83
2023/04/01 05:13:28;;;;;;;3.33;2.43;;;10.50;99.90;;;;;;5074551;28;20309;-83
2023/04/01 05:15:54;;;;;;;4.80;3.77;;;10.60;99.90;;;;;;5090286;28;20709;-82
2023/04/01 05:18:20;;;;;;;3.73;3.30;;;10.60;99.90;;;;;;5091636;28;20277;-83
2023/04/01 05:20:50;;;;;;;5.50;2.77;;;10.60;99.90;;;;;;5056945;28;20658;-83
2023/04/01 05:23:16;;;;;;;6.73;4.10;;;10.60;99.90;;;;;;5090271;28;20212;-83
2023/04/01 05:25:42;;;;;;;2.93;2.53;;;10.60;99.90;;;;;;5090751;28;20173;-83
2023/04/01 05:28:11;;;;;;;9.30;4.20;;;10.60;99.90;;;;;;5074561;28;20642;-83
2023/04/01 05:30:40;;;;;;;3.97;3.57;;;10.60;99.90;;;;;;5090341;28;20223;-83
2023/04/01 05:33:06;;;;;;;5.13;4.63;;;10.60;99.90;;;;;;5090517;28;20295;-83
2023/04/01 05:35:32;;;;;;;7.53;4.40;;;10.50;99.90;;;;;;5073671;28;20312;-83
2023/04/01 05:37:58;;;;;;;14.63;5.23;;;10.60;99.90;;;;;;5073273;28;20734;-83
2023/04/01 05:40:23;;;;;;;8.70;4.30;;;10.60;99.90;;;;;;5073843;28;20186;-83
2023/04/01 05:42:49;;;;;;;5.27;3.40;;;10.60;99.90;;;;;;5090351;28;20220;-83
2023/04/01 05:45:15;;;;;;;6.93;3.07;;;10.50;99.90;;;;;;5073354;28;20657;-83
2023/04/01 05:47:42;;;;;;;6.27;4.17;;;10.50;99.90;;;;;;5090678;28;20687;-88
2023/04/01 05:50:10;;;;;;;4.30;2.73;;;10.50;99.90;;;;;;5073516;28;20208;-83
2023/04/01 05:52:36;;;;;;;7.40;5.07;;;10.50;99.90;;;;;;5095452;28;20191;-83
2023/04/01 05:55:03;;;;;;;6.10;4.23;;;10.50;99.90;;;;;;5060475;28;20702;-85
2023/04/01 05:57:29;;;;;;;4.37;3.47;;;10.50;99.90;;;;;;5094091;28;20580;-83
2023/04/01 05:59:54;;;;;;;6.33;4.23;;;10.50;99.90;;;;;;5093726;28;20240;-84
2023/04/01 06:02:20;;;;;;;9.60;3.93;;;10.50;99.90;;;;;;5060694;28;20303;-83
2023/04/01 06:04:46;;;;;;;4.77;3.47;;;10.50;99.90;;;;;;5060676;28;20207;-83
2023/04/01 06:07:14;;;;;;;7.53;5.40;;;10.40;99.90;;;;;;5094684;28;20181;-86
2023/04/01 06:09:41;;;;;;;6.50;5.23;;;10.40;99.90;;;;;;5093713;28;20231;-85
2023/04/01 06:12:25;;;;;;;5.87;4.57;;;10.40;99.90;;;;;;5093866;28;20266;-86
2023/04/01 06:14:55;;;;;;;7.57;4.63;;;10.40;99.90;;;;;;5094712;28;20234;-83
2023/04/01 06:17:21;;;;;;;5.47;3.73;;;10.50;99.90;;;;;;5095224;28;20223;-84
2023/04/01 06:19:58;;;;;;;5.43;3.57;;;10.50;99.90;;;;;;5093587;28;20666;-83
2023/04/01 06:22:43;;;;;;;3.57;2.93;;;10.50;99.90;;;;;;5094199;28;20168;-82
2023/04/01 06:25:40;;;;;;;4.70;3.07;;;10.50;99.90;;;;;;5094003;28;20733;-85
2023/04/01 06:28:31;;;;;;;5.47;3.10;;;10.50;99.90;;;;;;5092931;28;20213;-84
2023/04/01 06:31:03;;;;;;;7.83;5.03;;;10.50;99.90;;;;;;5093109;28;20227;-84
2023/04/01 06:33:56;;;;;;;6.13;4.93;;;10.50;99.90;;;;;;5095473;28;20216;-84
2023/04/01 06:36:40;;;;;;;5.67;4.37;;;10.50;99.90;;;;;;5093874;28;20350;-82
2023/04/01 06:39:25;;;;;;;5.37;3.90;;;10.50;99.90;;;;;;5093426;28;20697;-83
2023/04/01 06:41:59;;;;;;;5.33;3.37;;;10.50;99.90;;;;;;5093390;28;20212;-83
2023/04/01 06:44:43;;;;;;;4.27;3.80;;;10.60;99.90;;;;;;5094686;28;20200;-83
2023/04/01 06:47:24;;;;;;;3.73;3.37;;;10.60;99.90;;;;;;5093253;28;20604;-84
2023/04/01 06:50:05;;;;;;;7.57;3.83;;;10.60;99.90;;;;;;5093336;28;20203;-83
2023/04/01 06:52:44;;;;;;;4.03;2.67;;;10.60;99.90;;;;;;5093689;28;20602;-84
2023/04/01 06:55:32;;;;;;;7.13;4.77;;;10.50;99.90;;;;;;5092952;28;20265;-84
2023/04/01 06:58:02;;;;;;;16.60;5.40;;;10.50;99.90;;;;;;5092563;28;20721;-84
2023/04/01 07:00:44;;;;;;;6.73;4.43;;;10.50;99.90;;;;;;5094287;28;20240;-87
2023/04/01 07:03:43;;;;;;;5.20;4.37;;;10.40;99.90;;;;;;5092475;28;20227;-85
2023/04/01 07:06:16;;;;;;;4.70;4.07;;;10.40;99.90;;;;;;5094150;28;20216;-86
2023/04/01 07:08:44;;;;;;;7.27;4.23;;;10.30;99.90;;;;;;5092833;28;20239;-86
2023/04/01 07:11:14;;;;;;;6.30;5.20;;;10.30;99.90;;;;;;5075943;28;20296;-86
2023/04/01 07:13:52;;;;;;;5.63;3.37;;;10.30;99.90;;;;;;5092789;28;20169;-84
2023/04/01 07:16:27;;;;;;;5.10;3.37;;;10.30;99.90;;;;;;5093921;28;20181;-94
2023/04/01 07:19:20;;;;;;;5.60;3.57;;;10.30;99.90;;;;;;5093279;28;20232;-86
2023/04/01 07:21:54;;;;;;;5.03;2.37;;;10.30;99.90;;;;;;5093459;28;20727;-87
2023/04/01 07:24:31;;;;;;;3.17;2.97;;;10.30;99.90;;;;;;5092424;28;20220;-86
2023/04/01 07:26:57;;;;;;;5.10;3.37;;;10.30;99.90;;;;;;5094145;28;20243;-88
2023/04/01 07:29:26;;;;;;;4.30;2.60;;;10.30;99.90;;;;;;5094065;28;20208;-85
2023/04/01 07:32:09;;;;;;;5.83;3.20;;;10.20;99.90;;;;;;5094352;28;20656;-86
2023/04/01 07:38:03;;;;;;;4.20;2.70;;;10.20;99.90;;;;;;5094697;28;20235;-86
2023/04/01 07:40:37;;;;;;;6.33;2.80;;;10.30;99.90;;;;;;5095278;28;20180;-87
2023/04/01 07:43:31;;;;;;;3.93;3.20;;;10.30;99.90;;;;;;5093222;28;20311;-86
2023/04/01 07:46:17;;;;;;;2.60;2.40;;;10.30;99.90;;;;;;5093909;28;20239;-87
2023/04/01 07:49:11;;;;;;;3.53;2.30;;;10.30;99.90;;;;;;5093425;28;20173;-86
2023/04/01 07:51:52;;;;;;;3.30;3.10;;;10.40;99.90;;;;;;5093111;28;20620;-87
2023/04/01 07:54:42;;;;;;;1.83;1.73;;;10.30;99.90;;;;;;5092867;28;20153;-87
2023/04/01 07:57:15;;;;;;;2.50;2.10;;;10.30;99.90;;;;;;5094075;28;20188;-87
2023/04/01 08:00:08;;;;;;;1.60;1.40;;;10.20;99.90;;;;;;5093745;28;20347;-87
2023/04/01 08:03:11;;;;;;;0.77;0.70;;;10.30;99.90;;;;;;5093984;28;20183;-86
2023/04/01 08:05:39;;;;;;;8.63;1.40;;;10.20;99.90;;;;;;5092882;28;20268;-85
2023/04/01 08:08:17;;;;;;;0.60;0.60;;;10.10;99.90;;;;;;5092974;28;20609;-88
2023/04/01 08:10:49;;;;;;;0.90;0.90;;;10.10;99.90;;;;;;5092514;28;20534;-91
2023/04/01 08:13:26;;;;;;;1.30;1.00;;;10.10;99.90;;;;;;5092373;28;20637;-87
2023/04/01 08:16:13;;;;;;;0.60;0.60;;;10.20;99.90;;;;;;5093546;28;20290;-87
2023/04/01 08:18:46;;;;;;;0.67;0.63;;;10.20;99.90;;;;;;5092632;28;20578;-86
2023/04/01 08:21:20;;;;;;;0.73;0.67;;;10.20;99.90;;;;;;5093327;28;20272;-88
2023/04/01 08:23:50;;;;;;;0.70;0.63;;;10.20;99.90;;;;;;5094093;28;20164;-88
2023/04/01 08:26:41;;;;;;;2.87;0.60;;;10.20;99.90;;;;;;5094053;28;20208;-86
2023/04/01 08:29:15;;;;;;;0.80;0.80;;;10.30;99.90;;;;;;5092458;28;20169;-87
2023/04/01 08:35:21;;;;;;;5.00;0.90;;;10.30;99.90;;;;;;5094027;28;20277;-87
2023/04/01 08:37:50;;;;;;;0.23;0.20;;;10.50;99.90;;;;;;5093214;28;20260;-86
2023/04/01 08:40:44;;;;;;;0.70;0.70;;;10.30;99.90;;;;;;5093779;28;20256;-86
2023/04/01 08:43:30;;;;;;;1.83;0.80;;;10.40;99.90;;;;;;5092864;28;20239;-85
2023/04/01 08:46:13;;;;;;;1.03;0.50;;;10.50;99.90;;;;;;5092579;28;20719;-85
2023/04/01 08:48:42;;;;;;;1.40;1.30;;;10.50;99.90;;;;;;5092035;28;20216;-86
2023/04/01 08:51:49;;;;;;;0.67;0.67;;;10.50;99.90;;;;;;5092433;28;20693;-87
2023/04/01 08:54:35;;;;;;;1.40;1.30;;;10.40;99.90;;;;;;4993544;28;20226;-87
2023/04/01 08:57:17;;;;;;;0.37;0.20;;;10.50;99.90;;;;;;4993219;28;20739;-87
2023/04/01 08:59:54;;;;;;;0.53;0.50;;;10.40;99.90;;;;;;5070055;28;20240;-86
2023/04/01 09:02:47;;;;;;;1.73;1.07;;;10.40;99.90;;;;;;5091914;28;20231;-87
2023/04/01 09:05:56;;;;;;;0.37;0.33;;;10.40;99.90;;;;;;5093146;28;20209;-88
2023/04/01 09:08:33;;;;;;;0.77;0.60;;;10.50;99.90;;;;;;5074068;28;20269;-89
2023/04/01 09:11:18;;;;;;;4.83;0.30;;;10.50;99.90;;;;;;5092273;28;20216;-89
2023/04/01 09:14:12;;;;;;;0.50;0.50;;;10.60;99.90;;;;;;5092648;28;20743;-89
2023/04/01 09:17:17;;;;;;;2.67;0.83;;;10.60;99.90;;;;;;5091335;28;20268;-87
2023/04/01 09:19:45;;;;;;;0.70;0.23;;;10.60;99.90;;;;;;5091718;28;20298;-89
2023/04/01 09:22:33;;;;;;;0.67;0.67;;;10.50;99.90;;;;;;5093146;28;20193;-88
2023/04/01 09:25:01;;;;;;;0.40;0.30;;;10.60;99.90;;;;;;5091251;28;20299;-88
2023/04/01 09:27:53;;;;;;;0.40;0.20;;;10.70;99.90;;;;;;5094512;28;20221;-86
2023/04/01 09:30:56;;;;;;;0.60;0.60;;;10.60;99.90;;;;;;5092029;28;20224;-86
2023/04/01 09:33:36;;;;;;;1.47;1.37;;;10.60;99.90;;;;;;5095860;28;20773;-86
2023/04/01 09:36:17;;;;;;;0.60;0.60;;;10.50;99.90;;;;;;5094602;28;20224;-84
2023/04/01 09:38:56;;;;;;;1.93;0.67;;;10.80;99.90;;;;;;5094144;28;20282;-84
2023/04/01 09:41:31;;;;;;;0.20;0.20;;;10.80;99.90;;;;;;5094031;28;20561;-84
2023/04/01 09:44:15;;;;;;;0.50;0.50;;;10.60;99.90;;;;;;5094255;28;20169;-85
2023/04/01 09:47:27;;;;;;;0.40;0.40;;;10.50;99.90;;;;;;5094329;28;20161;-84
2023/04/01 09:50:16;;;;;;;0.33;0.13;;;10.30;99.90;;;;;;5094106;28;20186;-85
2023/04/01 09:52:42;;;;;;;0.20;0.20;;;10.20;99.90;;;;;;5094362;28;20264;-86
2023/04/01 09:55:33;;;;;;;0.70;0.70;;;10.10;99.90;;;;;;5095944;28;20267;-87
2023/04/01 09:58:23;;;;;;;0.40;0.40;;;10.10;99.90;;;;;;5094829;28;20232;-87
2023/04/01 10:01:32;;;;;;;0.27;0.27;;;10.20;99.90;;;;;;5094367;28;20241;-89
2023/04/01 10:04:35;;;;;;;1.40;0.60;;;10.20;99.90;;;;;;5095019;28;20257;-89
2023/04/01 10:07:28;;;;;;;0.40;0.40;;;10.30;99.90;;;;;;5095121;28;20212;-89
2023/04/01 10:10:32;;;;;;;0.40;0.40;;;10.20;99.90;;;;;;5095114;28;20220;-90
2023/04/01 10:13:14;;;;;;;0.20;0.20;;;10.00;99.90;;;;;;5095051;28;20212;-91
2023/04/01 10:16:14;;;;;;;0.20;0.20;;;10.00;99.90;;;;;;5095031;28;20212;-90
2023/04/01 10:19:06;;;;;;;0.37;0.37;;;10.00;99.90;;;;;;5095669;28;20258;-91
2023/04/01 10:22:10;;;;;;;0.47;0.47;;;10.00;99.90;;;;;;5091862;28;20580;-90
2023/04/01 10:25:24;;;;;;;0.50;0.30;;;10.20;99.90;;;;;;4996353;28;20210;-94
2023/04/01 10:28:04;;;;;;;3.43;1.40;;;10.10;99.90;;;;;;4963112;28;20191;-89
2023/04/01 10:30:50;;;;;;;9.33;2.77;;;9.90;99.90;;;;;;5083339;28;20192;-89
2023/04/01 10:33:53;;;;;;;2.53;0.57;;;9.80;99.90;;;;;;5077596;28;20615;-91
2023/04/01 14:02:47;;;;;;;0.90;0.60;;;9.30;99.90;;;;;;6049872;23;1292319;-90
2023/04/01 14:05:37;;;;;;;0.50;0.50;;;9.40;99.90;;;;;;6110354;23;20455;-88
2023/04/01 14:08:20;;;;;;;0.30;0.30;;;9.40;99.90;;;;;;6113855;23;20158;-89
2023/04/01 14:11:03;;;;;;;9.87;2.00;;;9.20;99.90;;;;;;6112288;23;20257;-88
2023/04/01 14:13:47;;;;;;;0.20;0.20;;;9.20;99.90;;;;;;6112923;23;20163;-88
2023/04/01 14:22:05;;;;;;;2.27;0.57;;;9.00;99.90;;;;;;6244830;22;20516;-93
2023/04/01 14:24:58;;;;;;;1.07;1.00;;;8.90;99.90;;;;;;6208702;23;20326;-92
2023/04/01 14:28:00;;;;;;;0.70;0.40;;;8.90;99.90;;;;;;6182871;23;20200;-92
2023/04/01 14:30:41;;;;;;;0.47;0.47;;;8.90;99.90;;;;;;6194382;23;20210;-94
2023/04/01 14:33:32;;;;;;;0.73;0.70;;;8.80;99.90;;;;;;6207596;23;20357;-93
2023/04/01 14:36:23;;;;;;;0.30;0.30;;;8.70;99.90;;;;;;6209005;23;20278;-92
2023/04/01 14:39:03;;;;;;;0.80;0.80;;;8.60;99.90;;;;;;6191911;23;20186;-94
2023/04/01 14:41:47;;;;;;;1.67;1.27;;;8.70;99.90;;;;;;6206794;23;20174;-93
2023/04/01 14:44:16;;;;;;;1.23;0.67;;;8.70;99.90;;;;;;6205932;23;20229;-93
2023/04/01 14:46:42;;;;;;;0.60;0.60;;;8.70;99.90;;;;;;6206269;23;20282;-94
2023/04/01 14:49:21;;;;;;;2.10;1.37;;;8.60;99.90;;;;;;6182341;23;20195;-93
2023/04/01 14:51:48;;;;;;;1.10;0.43;;;8.70;99.90;;;;;;6204123;23;20272;-93
2023/04/01 14:54:22;;;;;;;0.27;0.27;;;8.50;99.90;;;;;;6179720;23;20670;-93
2023/04/01 14:57:14;;;;;;;3.40;0.70;;;8.50;99.90;;;;;;6191746;23;20216;-93
2023/04/01 15:00:00;;;;;;;1.50;1.40;;;8.40;99.90;;;;;;6223019;23;20277;-93
2023/04/01 15:02:42;;;;;;;5.90;1.97;;;8.50;99.90;;;;;;6194858;23;20648;-94
2023/04/01 15:05:25;;;;;;;0.73;0.73;;;8.40;99.90;;;;;;6211254;23;20187;-90
2023/04/01 15:08:23;;;;;;;1.53;1.43;;;8.30;99.90;;;;;;6240090;23;20189;-93
2023/04/01 15:11:00;;;;;;;2.17;0.77;;;8.30;99.90;;;;;;6239779;23;20194;-90
2023/04/01 15:13:32;;;;;;;2.17;2.07;;;8.30;99.90;;;;;;6210320;23;20530;-91
2023/04/01 15:16:22;;;;;;;19.10;3.53;;;8.30;99.90;;;;;;6208818;23;20201;-91
2023/04/01 15:19:26;;;;;;;1.57;1.47;;;8.30;99.90;;;;;;6208489;23;20277;-91
2023/04/01 15:22:29;;;;;;;1.23;1.13;;;8.30;99.90;;;;;;6209844;23;20190;-90
2023/04/01 15:25:17;;;;;;;5.50;0.87;;;8.30;99.90;;;;;;6209356;23;20202;-92
2023/04/01 15:28:01;;;;;;;1.90;1.73;;;8.30;99.90;;;;;;6210524;23;20199;-89
2023/04/01 15:30:53;;;;;;;3.80;1.23;;;8.30;99.90;;;;;;6184941;23;20715;-89
2023/04/01 15:33:42;;;;;;;2.33;0.80;;;8.30;99.90;;;;;;6223764;23;20221;-91
2023/04/01 15:36:28;;;;;;;1.67;0.87;;;8.30;99.90;;;;;;6232345;23;20587;-92
2023/04/01 15:39:35;;;;;;;0.67;0.67;;;8.30;99.90;;;;;;6213606;23;20201;-92
2023/04/01 15:42:28;;;;;;;0.83;0.83;;;8.20;99.90;;;;;;6157979;23;20245;-90
2023/04/01 15:45:35;;;;;;;1.70;1.63;;;8.20;99.90;;;;;;6209924;23;20459;-93
2023/04/01 15:48:26;;;;;;;0.50;0.50;;;8.10;99.90;;;;;;6210599;23;20190;-94
2023/04/01 15:51:28;;;;;;;0.63;0.53;;;8.10;99.90;;;;;;6207723;23;20261;-94
2023/04/01 15:54:27;;;;;;;6.33;1.77;;;8.00;99.90;;;;;;6174967;23;20197;-93
2023/04/01 15:56:56;;;;;;;0.87;0.87;;;8.10;99.90;;;;;;6216927;23;20252;-94
2023/04/01 15:59:25;;;;;;;1.67;1.43;;;8.00;99.90;;;;;;6204506;23;20167;-94
2023/04/01 16:02:09;;;;;;;0.97;0.97;;;7.90;99.90;;;;;;6210106;23;20233;-93
2023/04/01 16:05:05;;;;;;;5.30;0.73;;;7.90;99.90;;;;;;6207331;23;20197;-94
2023/04/01 16:08:30;;;;;;;1.90;1.80;;;8.00;99.90;;;;;;6238833;23;20209;-92
2023/04/01 16:11:12;;;;;;;2.13;1.13;;;8.00;99.90;;;;;;6097530;23;20204;-92
2023/04/01 16:13:53;;;;;;;6.50;1.40;;;7.90;99.90;;;;;;6098365;23;20172;-94
2023/04/01 16:16:46;;;;;;;1.53;1.00;;;7.90;99.90;;;;;;6164610;23;20286;-95
2023/04/01 16:19:32;;;;;;;2.47;2.10;;;7.80;99.90;;;;;;6206761;23;20249;-92
2023/04/01 16:22:19;;;;;;;0.40;0.40;;;7.90;99.90;;;;;;6209640;23;20668;-94
2023/04/01 16:25:00;;;;;;;1.33;1.33;;;7.80;99.90;;;;;;6175358;23;20226;-95
2023/04/01 16:27:35;;;;;;;14.43;2.90;;;7.80;99.90;;;;;;6223952;23;20214;-94
2023/04/01 16:30:23;;;;;;;1.23;1.13;;;7.80;99.90;;;;;;6228258;23;20202;-94
2023/04/01 16:33:01;;;;;;;0.50;0.50;;;7.80;99.90;;;;;;6211957;23;20194;-92
2023/04/01 16:35:47;;;;;;;0.90;0.90;;;7.80;99.90;;;;;;6211259;23;20150;-94
2023/04/01 16:39:01;;;;;;;0.47;0.47;;;7.70;99.90;;;;;;6214287;23;20364;-93
2023/04/01 16:41:36;;;;;;;0.87;0.87;;;7.80;99.90;;;;;;6169757;22;20976;-95
2023/04/01 16:44:23;;;;;;;1.27;1.27;;;7.80;99.90;;;;;;6192780;23;20115;-92
2023/04/01 16:47:11;;;;;;;0.70;0.70;;;7.70;99.90;;;;;;6214566;23;20239;-91
2023/04/01 16:50:05;;;;;;;1.13;1.03;;;7.60;99.90;;;;;;6170410;23;20194;-93
2023/04/01 16:52:43;;;;;;;1.03;1.00;;;7.60;99.90;;;;;;6210481;23;20683;-91
2023/04/01 16:55:17;;;;;;;1.90;1.80;;;7.60;99.90;;;;;;6216094;23;20283;-94
2023/04/01 16:57:56;;;;;;;0.30;0.30;;;7.70;99.90;;;;;;6210559;23;20646;-93
2023/04/01 17:00:25;;;;;;;1.27;1.13;;;7.60;99.90;;;;;;6209362;23;20774;-92
2023/04/01 17:03:17;;;;;;;0.87;0.80;;;7.60;99.90;;;;;;6209741;23;20201;-92
2023/04/01 17:06:04;;;;;;;3.23;1.70;;;7.70;99.90;;;;;;6207224;23;20692;-91
2023/04/01 17:09:01;;;;;;;0.73;0.73;;;7.70;99.90;;;;;;6208261;23;20209;-92
2023/04/01 17:11:46;;;;;;;2.23;1.20;;;7.60;99.90;;;;;;6209216;23;20185;-93
2023/04/01 17:14:37;;;;;;;3.60;1.63;;;7.60;99.90;;;;;;6210044;23;20140;-92
2023/04/01 17:17:26;;;;;;;2.23;2.13;;;7.50;99.90;;;;;;6210246;23;20139;-92